Speedrunner III — SVAF3 — position and weather

sailwx.info

Track history (hours):
 
Tides and Currents Weather Stations Pressure Air Temp Water Temp Dewpoint Dewpoint Depression Visibility Wind Speed Wind Dir Waves Ship Positions

Speedrunner III

Last reported at 2018-Jun-19 19:59 UTC. Time now 2018-Jun-19 20:14 UTC.
Position N 37°57' E 023°38'.

Length 100 m; draft 4 m.

Type: Ship. MMSI: 240932000.

Date/timePositionNaut miles runAvg speedWind from/ knotsBaromVisibWave heightAir tempDewpointWater temp
2018-Jun-19 19:59N 37°57' E 023°38'0 0.0
2018-Jun-19 19:29N 37°57' E 023°38'0 0.0
2018-Jun-19 18:59N 37°57' E 023°38'0 0.0
2018-Jun-19 18:29N 37°57' E 023°38'0 0.0
2018-Jun-19 17:59N 37°57' E 023°38'0 0.0
2018-Jun-19 17:29N 37°57' E 023°38'0 0.0
2018-Jun-19 16:59N 37°57' E 023°38'0 0.0
2018-Jun-19 16:29N 37°57' E 023°38'0 0.0
2018-Jun-19 15:59N 37°57' E 023°38'0 0.0
2018-Jun-19 15:29N 37°57' E 023°38'0 0.0
2018-Jun-19 14:56N 37°57' E 023°38'0 0.0
2018-Jun-19 14:29N 37°57' E 023°38'0 0.0
2018-Jun-19 13:59N 37°57' E 023°38'0 0.0
2018-Jun-19 13:29N 37°57' E 023°38'3 5.9
2018-Jun-19 13:00N 37°54' E 023°38'1529.2
2018-Jun-19 12:30N 37°41' E 023°46'8 1.1
2018-Jun-19 05:27N 37°34' E 023°51'1330.2
2018-Jun-19 05:01N 37°44' E 023°40'1224.7
2018-Jun-19 04:30N 37°57' E 023°38'0 0.1
2018-Jun-19 04:00N 37°57' E 023°38'0 0.0
2018-Jun-19 03:30N 37°57' E 023°38'0 0.0
2018-Jun-19 03:00N 37°57' E 023°38'0 0.0
2018-Jun-19 02:30N 37°57' E 023°38'0 0.0
2018-Jun-19 02:00N 37°57' E 023°38'0 0.0
2018-Jun-19 01:30N 37°57' E 023°38'0 0.0
2018-Jun-19 01:00N 37°57' E 023°38'0 0.0
2018-Jun-19 00:30N 37°57' E 023°38'0 0.0
2018-Jun-19 00:00N 37°57' E 023°38'0 0.0
2018-Jun-18 23:30N 37°57' E 023°38'0 0.0
2018-Jun-18 23:00N 37°57' E 023°38'0 0.0
2018-Jun-18 22:30N 37°57' E 023°38'0 0.0
2018-Jun-18 22:00N 37°57' E 023°38'0 0.0
2018-Jun-18 21:30N 37°57' E 023°38'0 0.0
2018-Jun-18 21:00N 37°57' E 023°38'0 0.0
2018-Jun-18 20:30N 37°57' E 023°38'0 0.0
2018-Jun-18 20:00N 37°57' E 023°38'0 0.0
2018-Jun-18 19:30N 37°57' E 023°38'0 0.0
2018-Jun-18 19:00N 37°57' E 023°38'0 0.0
2018-Jun-18 18:30N 37°57' E 023°38'0 0.0
2018-Jun-18 18:00N 37°57' E 023°38'0 0.0
2018-Jun-18 17:30N 37°57' E 023°38'0 0.0
2018-Jun-18 17:00N 37°57' E 023°38'0 0.0
2018-Jun-18 16:30N 37°57' E 023°38'0 0.0
2018-Jun-18 16:00N 37°57' E 023°38'0 0.0
2018-Jun-18 15:30N 37°57' E 023°38'0 0.0
2018-Jun-18 15:00N 37°57' E 023°38'0 0.0
2018-Jun-18 14:30N 37°57' E 023°38'0 0.0
2018-Jun-18 14:00N 37°57' E 023°38'0 0.0
2018-Jun-18 13:30N 37°57' E 023°38'3 5.9
2018-Jun-18 13:00N 37°54' E 023°38'1929.6
2018-Jun-18 12:23N 37°38' E 023°49'6 0.9
2018-Jun-18 05:33N 37°32' E 023°53'230.2
2018-Jun-18 05:29N 37°34' E 023°51'1429.9
2018-Jun-18 05:00N 37°45' E 023°40'1223.8
2018-Jun-18 04:31N 37°57' E 023°38'0 0.2
2018-Jun-18 04:00N 37°57' E 023°38'0 0.0
2018-Jun-18 03:30N 37°57' E 023°38'0 0.0
2018-Jun-18 03:00N 37°57' E 023°38'0 0.0
2018-Jun-18 02:30N 37°57' E 023°38'0 0.0
2018-Jun-18 02:00N 37°57' E 023°38'0 0.0
2018-Jun-18 01:30N 37°57' E 023°38'0 0.0
2018-Jun-18 01:00N 37°57' E 023°38'0 0.0
2018-Jun-18 00:30N 37°57' E 023°38'0 0.0
2018-Jun-18 00:00N 37°57' E 023°38'0 0.0
2018-Jun-17 23:30N 37°57' E 023°38'0 0.0
2018-Jun-17 23:00N 37°57' E 023°38'0 0.0
2018-Jun-17 22:27N 37°57' E 023°38'0 0.0
2018-Jun-17 22:00N 37°57' E 023°38'0 0.0
2018-Jun-17 21:30N 37°57' E 023°38'0 0.0
2018-Jun-17 21:00N 37°57' E 023°38'0 0.0
2018-Jun-17 20:30N 37°57' E 023°38'0 0.0
2018-Jun-17 20:00N 37°57' E 023°38'0 0.0
2018-Jun-17 19:30N 37°57' E 023°38'0 0.0
2018-Jun-17 19:00N 37°57' E 023°38'0 0.0
2018-Jun-17 18:30N 37°57' E 023°38'0 0.0
2018-Jun-17 18:00N 37°57' E 023°38'612.7
2018-Jun-17 17:31N 37°50' E 023°40'22 2.9
2018-Jun-17 10:05N 37°32' E 023°53'330.2
2018-Jun-17 10:00N 37°34' E 023°51'1429.8
2018-Jun-17 09:31N 37°45' E 023°39'1223.8
2018-Jun-17 09:00N 37°57' E 023°38'0 0.1
2018-Jun-17 08:30N 37°57' E 023°38'0 0.0
2018-Jun-17 08:00N 37°57' E 023°38'0 0.0
2018-Jun-17 07:30N 37°57' E 023°38'0 0.0
2018-Jun-17 07:00N 37°57' E 023°38'0 0.0
2018-Jun-17 06:30N 37°57' E 023°38'0 0.0
2018-Jun-17 06:00N 37°57' E 023°38'0 0.0
2018-Jun-17 05:30N 37°57' E 023°38'0 0.0
2018-Jun-17 05:00N 37°57' E 023°38'0 0.0
2018-Jun-17 04:30N 37°57' E 023°38'0 0.0
2018-Jun-17 04:00N 37°57' E 023°38'0 0.0
2018-Jun-17 03:30N 37°57' E 023°38'0 0.0
2018-Jun-17 03:00N 37°57' E 023°38'0 0.0
2018-Jun-17 02:30N 37°57' E 023°38'0 0.0
2018-Jun-17 02:00N 37°57' E 023°38'0 0.0
2018-Jun-17 01:30N 37°57' E 023°38'0 0.0
2018-Jun-17 01:00N 37°57' E 023°38'0 0.0
2018-Jun-17 00:30N 37°57' E 023°38'0 0.0
2018-Jun-17 00:00N 37°57' E 023°38'0 0.0
2018-Jun-16 23:30N 37°57' E 023°38'0 0.0
2018-Jun-16 23:00N 37°57' E 023°38'0 0.0
2018-Jun-16 22:30N 37°57' E 023°38'0 0.0
2018-Jun-16 22:00N 37°57' E 023°38'0 0.0
2018-Jun-16 21:30N 37°57' E 023°38'0 0.0
2018-Jun-16 21:00N 37°57' E 023°38'0 0.0
2018-Jun-16 20:30N 37°57' E 023°38'0 0.0
2018-Jun-16 20:00N 37°57' E 023°38'0 0.0
2018-Jun-16 19:30N 37°57' E 023°38'0 0.0
2018-Jun-16 19:00N 37°57' E 023°38'0 0.0
2018-Jun-16 18:30N 37°57' E 023°38'0 0.0
2018-Jun-16 18:00N 37°57' E 023°38'0 0.0
2018-Jun-16 17:27N 37°57' E 023°38'0 0.0
2018-Jun-16 16:57N 37°57' E 023°38'0 0.0
2018-Jun-16 16:30N 37°57' E 023°38'0 0.0
2018-Jun-16 16:00N 37°57' E 023°38'0 0.0
2018-Jun-16 15:30N 37°57' E 023°38'0 0.0
2018-Jun-16 15:00N 37°57' E 023°38'0 0.0
2018-Jun-16 14:30N 37°57' E 023°38'0 0.0
2018-Jun-16 14:00N 37°57' E 023°38'0 0.0
2018-Jun-16 13:30N 37°57' E 023°38'2 4.9
2018-Jun-16 13:00N 37°54' E 023°38'1529.0
2018-Jun-16 12:30N 37°41' E 023°46'5 0.7
2018-Jun-16 05:21N 37°36' E 023°48'1030.2
2018-Jun-16 05:00N 37°45' E 023°40'1223.9
2018-Jun-16 04:30N 37°57' E 023°38'0 0.1
2018-Jun-16 04:00N 37°57' E 023°38'0 0.0
2018-Jun-16 03:30N 37°57' E 023°38'0 0.0
2018-Jun-16 03:00N 37°57' E 023°38'0 0.0
2018-Jun-16 02:30N 37°57' E 023°38'0 0.0
2018-Jun-16 02:00N 37°57' E 023°38'0 0.0
2018-Jun-16 01:30N 37°57' E 023°38'0 0.0
2018-Jun-16 01:00N 37°57' E 023°38'0 0.0
2018-Jun-16 00:30N 37°57' E 023°38'0 0.0
2018-Jun-16 00:00N 37°57' E 023°38'0 0.0
2018-Jun-15 23:30N 37°57' E 023°38'0 0.0
2018-Jun-15 23:00N 37°57' E 023°38'0 0.0
2018-Jun-15 22:30N 37°57' E 023°38'0 0.0
2018-Jun-15 22:00N 37°57' E 023°38'1 2.6
2018-Jun-15 21:31N 37°56' E 023°37'1224.7
2018-Jun-15 21:01N 37°45' E 023°44'14 2.3
2018-Jun-15 14:39N 37°32' E 023°53'428.6
2018-Jun-15 14:30N 37°35' E 023°49'1428.2
2018-Jun-15 14:01N 37°46' E 023°39'1020.5
2018-Jun-15 13:31N 37°57' E 023°38'0 0.0
2018-Jun-15 12:58N 37°57' E 023°38'0 0.0
2018-Jun-15 12:31N 37°57' E 023°38'0 0.0
2018-Jun-15 12:01N 37°57' E 023°38'0 0.0
2018-Jun-15 11:31N 37°57' E 023°38'0 0.0
2018-Jun-15 11:01N 37°57' E 023°38'0 0.0
2018-Jun-15 10:31N 37°57' E 023°38'0 0.0
2018-Jun-15 09:58N 37°57' E 023°38'0 0.0
2018-Jun-15 09:28N 37°57' E 023°38'0 0.0
2018-Jun-15 09:01N 37°57' E 023°38'0 0.0
2018-Jun-15 08:31N 37°57' E 023°38'0 0.0
2018-Jun-15 08:01N 37°57' E 023°38'0 0.0
2018-Jun-15 07:31N 37°57' E 023°38'0 0.0
2018-Jun-15 07:01N 37°57' E 023°38'0 0.0
2018-Jun-15 06:25N 37°57' E 023°38'0 0.0
2018-Jun-15 06:01N 37°57' E 023°38'0 0.0
2018-Jun-15 05:31N 37°57' E 023°38'0 0.0
2018-Jun-15 05:01N 37°57' E 023°38'0 0.0
2018-Jun-15 04:31N 37°57' E 023°38'0 0.0
2018-Jun-15 04:01N 37°57' E 023°38'0 0.0
2018-Jun-15 03:31N 37°57' E 023°38'0 0.0
2018-Jun-15 03:01N 37°57' E 023°38'0 0.0
2018-Jun-15 02:31N 37°57' E 023°38'0 0.0
2018-Jun-15 02:01N 37°57' E 023°38'0 0.0
2018-Jun-15 01:31N 37°57' E 023°38'0 0.0
2018-Jun-15 01:01N 37°57' E 023°38'0 0.0
2018-Jun-15 00:31N 37°57' E 023°38'0 0.0
2018-Jun-15 00:01N 37°57' E 023°38'0 0.0
2018-Jun-14 23:28N 37°57' E 023°38'0 0.0
2018-Jun-14 23:01N 37°57' E 023°38'0 0.0
2018-Jun-14 22:31N 37°57' E 023°38'0 0.0
2018-Jun-14 22:01N 37°57' E 023°38'0 0.0
2018-Jun-14 21:31N 37°57' E 023°38'0 0.0
2018-Jun-14 21:01N 37°57' E 023°38'0 0.0
2018-Jun-14 20:31N 37°57' E 023°38'0 0.0
2018-Jun-14 20:01N 37°57' E 023°38'0 0.0
2018-Jun-14 19:31N 37°57' E 023°38'0 0.0
2018-Jun-14 19:01N 37°57' E 023°38'0 0.0
2018-Jun-14 18:31N 37°57' E 023°38'0 0.0
2018-Jun-14 18:01N 37°57' E 023°38'0 0.0
2018-Jun-14 17:31N 37°57' E 023°38'0 0.0
2018-Jun-14 17:01N 37°57' E 023°38'0 0.0
2018-Jun-14 16:31N 37°57' E 023°38'0 0.0
2018-Jun-14 16:01N 37°57' E 023°38'0 0.0
2018-Jun-14 15:31N 37°57' E 023°38'0 0.0
2018-Jun-14 15:01N 37°57' E 023°38'0 0.0
2018-Jun-14 14:31N 37°57' E 023°38'0 0.0
2018-Jun-14 14:01N 37°57' E 023°38'0 0.0
2018-Jun-14 13:31N 37°57' E 023°38'3 6.1
2018-Jun-14 13:00N 37°54' E 023°38'1428.9
2018-Jun-14 12:31N 37°41' E 023°46'9 1.3
2018-Jun-14 05:33N 37°33' E 023°52'429.8
2018-Jun-14 05:26N 37°35' E 023°49'1329.4
2018-Jun-14 05:00N 37°45' E 023°40'12 0.8
2018-Jun-13 14:41N 37°57' E 023°38'0 0.0
2018-Jun-13 14:29N 37°57' E 023°38'0 0.0
2018-Jun-13 13:59N 37°57' E 023°38'0 0.0
2018-Jun-13 13:30N 37°57' E 023°38'4 7.8
2018-Jun-13 13:01N 37°53' E 023°39'1530.5
2018-Jun-13 12:31N 37°39' E 023°47'13 1.9
2018-Jun-13 05:44N 37°29' E 023°57'729.8
2018-Jun-13 05:30N 37°33' E 023°51'1530.0
2018-Jun-13 05:01N 37°45' E 023°39'1223.3
2018-Jun-13 04:30N 37°57' E 023°38'0 0.1
2018-Jun-13 03:59N 37°57' E 023°38'0 0.0
2018-Jun-13 03:29N 37°57' E 023°38'0 0.0
2018-Jun-13 02:59N 37°57' E 023°38'0 0.0
2018-Jun-13 02:29N 37°57' E 023°38'0 0.0
2018-Jun-13 01:59N 37°57' E 023°38'0 0.0
2018-Jun-13 01:29N 37°57' E 023°38'0 0.0
2018-Jun-13 00:59N 37°57' E 023°38'0 0.0
2018-Jun-13 00:29N 37°57' E 023°38'0 0.0
2018-Jun-12 23:59N 37°57' E 023°38'0 0.0
2018-Jun-12 23:29N 37°57' E 023°38'0 0.0
2018-Jun-12 22:56N 37°57' E 023°38'0 0.0
2018-Jun-12 22:29N 37°57' E 023°38'0 0.0
2018-Jun-12 21:59N 37°57' E 023°38'0 0.0
2018-Jun-12 21:29N 37°57' E 023°38'0 0.0
2018-Jun-12 20:59N 37°57' E 023°38'0 0.0
2018-Jun-12 20:29N 37°57' E 023°38'0 0.0
2018-Jun-12 19:59N 37°57' E 023°38'0 0.0
2018-Jun-12 19:29N 37°57' E 023°38'0 0.0
2018-Jun-12 18:59N 37°57' E 023°38'0 0.0
2018-Jun-12 18:29N 37°57' E 023°38'0 0.0
2018-Jun-12 17:59N 37°57' E 023°38'0 0.0
2018-Jun-12 17:29N 37°57' E 023°38'0 0.0
2018-Jun-12 16:59N 37°57' E 023°38'0 0.0
2018-Jun-12 16:29N 37°57' E 023°38'0 0.0
2018-Jun-12 15:59N 37°57' E 023°38'0 0.0
2018-Jun-12 15:29N 37°57' E 023°38'0 0.0
2018-Jun-12 14:59N 37°57' E 023°38'0 0.0
2018-Jun-12 14:29N 37°57' E 023°38'0 0.0
2018-Jun-12 13:59N 37°57' E 023°38'0 0.0
2018-Jun-12 13:29N 37°57' E 023°38'4 9.1
2018-Jun-12 13:01N 37°52' E 023°38'1631.2
2018-Jun-12 12:30N 37°39' E 023°48'9 1.2
2018-Jun-12 05:36N 37°31' E 023°53'330.2
2018-Jun-12 05:30N 37°33' E 023°51'1530.2
2018-Jun-12 05:01N 37°45' E 023°39'1223.9
2018-Jun-12 04:31N 37°57' E 023°38'0 0.1
2018-Jun-12 03:58N 37°57' E 023°38'0 0.0
2018-Jun-12 03:28N 37°57' E 023°38'0 0.0
2018-Jun-12 02:58N 37°57' E 023°38'0 0.0
2018-Jun-12 02:28N 37°57' E 023°38'0 0.0
2018-Jun-12 01:58N 37°57' E 023°38'0 0.0
2018-Jun-12 01:28N 37°57' E 023°38'0 0.0
2018-Jun-12 00:58N 37°57' E 023°38'0 0.0
2018-Jun-12 00:28N 37°57' E 023°38'0 0.0
2018-Jun-11 23:58N 37°57' E 023°38'0 0.0
2018-Jun-11 23:28N 37°57' E 023°38'0 0.0
2018-Jun-11 22:58N 37°57' E 023°38'0 0.0
2018-Jun-11 22:28N 37°57' E 023°38'0 0.0
2018-Jun-11 21:58N 37°57' E 023°38'0 0.0
2018-Jun-11 21:28N 37°57' E 023°38'0 0.0
2018-Jun-11 20:58N 37°57' E 023°38'0 0.0
2018-Jun-11 20:28N 37°57' E 023°38'0 0.0
2018-Jun-11 19:58N 37°57' E 023°38'0 0.0
2018-Jun-11 19:28N 37°57' E 023°38'0 0.0
2018-Jun-11 18:58N 37°57' E 023°38'0 0.0
2018-Jun-11 18:28N 37°57' E 023°38'0 0.0
2018-Jun-11 17:58N 37°57' E 023°38'0 0.0
2018-Jun-11 17:28N 37°57' E 023°38'0 0.0
2018-Jun-11 16:58N 37°57' E 023°38'0 0.0
2018-Jun-11 16:28N 37°57' E 023°38'0 0.0
2018-Jun-11 15:58N 37°57' E 023°38'0 0.0
2018-Jun-11 15:28N 37°57' E 023°38'0 0.0
2018-Jun-11 14:58N 37°57' E 023°38'0 0.0
2018-Jun-11 14:28N 37°57' E 023°38'0 0.0
2018-Jun-11 13:58N 37°57' E 023°38'1 1.3
2018-Jun-11 13:31N 37°56' E 023°38'714.0
2018-Jun-11 13:01N 37°50' E 023°40'18 2.4
2018-Jun-11 05:28N 37°34' E 023°50'1430.3
2018-Jun-11 05:00N 37°44' E 023°39'1224.5
2018-Jun-11 04:31N 37°57' E 023°38'0 0.1
2018-Jun-11 03:58N 37°57' E 023°38'0 0.0
2018-Jun-11 03:28N 37°57' E 023°38'0 0.0
2018-Jun-11 02:58N 37°57' E 023°38'0 0.0
2018-Jun-11 02:28N 37°57' E 023°38'0 0.0
2018-Jun-11 01:58N 37°57' E 023°38'0 0.0
2018-Jun-11 01:28N 37°57' E 023°38'0 0.0
2018-Jun-11 00:58N 37°57' E 023°38'0 0.0
2018-Jun-11 00:28N 37°57' E 023°38'0 0.0
2018-Jun-10 23:58N 37°57' E 023°38'0 0.0
2018-Jun-10 23:28N 37°57' E 023°38'0 0.0
2018-Jun-10 22:58N 37°57' E 023°38'0 0.0
2018-Jun-10 22:28N 37°57' E 023°38'0 0.0
2018-Jun-10 21:58N 37°57' E 023°38'0 0.0
2018-Jun-10 21:28N 37°57' E 023°38'0 0.0
2018-Jun-10 20:58N 37°57' E 023°38'0 0.0
2018-Jun-10 20:28N 37°57' E 023°38'0 0.0
2018-Jun-10 19:58N 37°57' E 023°38'0 0.0
2018-Jun-10 19:28N 37°57' E 023°38'0 0.0
2018-Jun-10 18:58N 37°57' E 023°38'0 0.0
2018-Jun-10 18:28N 37°57' E 023°38'0 0.0
2018-Jun-10 18:00N 37°57' E 023°38'4 8.8
2018-Jun-10 17:31N 37°52' E 023°39'1530.0
2018-Jun-10 17:00N 37°39' E 023°48'7 1.0
2018-Jun-10 10:03N 37°33' E 023°52'129.8
2018-Jun-10 10:00N 37°34' E 023°50'1529.4
2018-Jun-10 09:30N 37°45' E 023°39'1122.1
2018-Jun-10 09:00N 37°57' E 023°38'0 0.0
2018-Jun-10 08:30N 37°57' E 023°38'0 0.0
2018-Jun-10 08:00N 37°57' E 023°38'0 0.0
2018-Jun-10 07:30N 37°57' E 023°38'0 0.0
2018-Jun-10 07:00N 37°57' E 023°38'0 0.0
2018-Jun-10 06:30N 37°57' E 023°38'0 0.0
2018-Jun-10 06:00N 37°57' E 023°38'0 0.0
2018-Jun-10 05:30N 37°57' E 023°38'0 0.0
2018-Jun-10 05:00N 37°57' E 023°38'0 0.0
2018-Jun-10 04:30N 37°57' E 023°38'0 0.0
2018-Jun-10 04:00N 37°57' E 023°38'0 0.0
2018-Jun-10 03:30N 37°57' E 023°38'0 0.0
2018-Jun-10 03:00N 37°57' E 023°38'0 0.0
2018-Jun-10 02:30N 37°57' E 023°38'0 0.0
2018-Jun-10 02:00N 37°57' E 023°38'0 0.0
2018-Jun-10 01:30N 37°57' E 023°38'0 0.0
2018-Jun-10 01:00N 37°57' E 023°38'0 0.0
2018-Jun-10 00:30N 37°57' E 023°38'0 0.0
2018-Jun-10 00:00N 37°57' E 023°38'0 0.0
2018-Jun-09 23:30N 37°57' E 023°38'0 0.0
2018-Jun-09 23:00N 37°57' E 023°38'0 0.0
2018-Jun-09 22:30N 37°57' E 023°38'0 0.0
2018-Jun-09 22:00N 37°57' E 023°38'0 0.0
2018-Jun-09 21:30N 37°57' E 023°38'0 0.0
2018-Jun-09 20:57N 37°57' E 023°38'0 0.0
2018-Jun-09 20:30N 37°57' E 023°38'0 0.0
2018-Jun-09 20:00N 37°57' E 023°38'  
Track history (hours):
 
Tides and Currents Weather Stations Pressure Air Temp Water Temp Dewpoint Dewpoint Depression Visibility Wind Speed Wind Dir Waves Ship Positions

Speedrunner III

Last reported at 2018-Jun-19 19:59 UTC. Time now 2018-Jun-19 20:14 UTC.
Position N 37°57' E 023°38'.

Length 100 m; draft 4 m.

Type: Ship. MMSI: 240932000.

Date/timePositionNaut miles runAvg speedWind from/ knotsBaromVisibWave heightAir tempDewpointWater temp
2018-Jun-19 19:59N 37°57' E 023°38'0 0.0
2018-Jun-19 19:29N 37°57' E 023°38'0 0.0
2018-Jun-19 18:59N 37°57' E 023°38'0 0.0
2018-Jun-19 18:29N 37°57' E 023°38'0 0.0
2018-Jun-19 17:59N 37°57' E 023°38'0 0.0
2018-Jun-19 17:29N 37°57' E 023°38'0 0.0
2018-Jun-19 16:59N 37°57' E 023°38'0 0.0
2018-Jun-19 16:29N 37°57' E 023°38'0 0.0
2018-Jun-19 15:59N 37°57' E 023°38'0 0.0
2018-Jun-19 15:29N 37°57' E 023°38'0 0.0
2018-Jun-19 14:56N 37°57' E 023°38'0 0.0
2018-Jun-19 14:29N 37°57' E 023°38'0 0.0
2018-Jun-19 13:59N 37°57' E 023°38'0 0.0
2018-Jun-19 13:29N 37°57' E 023°38'3 5.9
2018-Jun-19 13:00N 37°54' E 023°38'1529.2
2018-Jun-19 12:30N 37°41' E 023°46'8 1.1
2018-Jun-19 05:27N 37°34' E 023°51'1330.2
2018-Jun-19 05:01N 37°44' E 023°40'1224.7
2018-Jun-19 04:30N 37°57' E 023°38'0 0.1
2018-Jun-19 04:00N 37°57' E 023°38'0 0.0
2018-Jun-19 03:30N 37°57' E 023°38'0 0.0
2018-Jun-19 03:00N 37°57' E 023°38'0 0.0
2018-Jun-19 02:30N 37°57' E 023°38'0 0.0
2018-Jun-19 02:00N 37°57' E 023°38'0 0.0
2018-Jun-19 01:30N 37°57' E 023°38'0 0.0
2018-Jun-19 01:00N 37°57' E 023°38'0 0.0
2018-Jun-19 00:30N 37°57' E 023°38'0 0.0
2018-Jun-19 00:00N 37°57' E 023°38'0 0.0
2018-Jun-18 23:30N 37°57' E 023°38'0 0.0
2018-Jun-18 23:00N 37°57' E 023°38'0 0.0
2018-Jun-18 22:30N 37°57' E 023°38'0 0.0
2018-Jun-18 22:00N 37°57' E 023°38'0 0.0
2018-Jun-18 21:30N 37°57' E 023°38'0 0.0
2018-Jun-18 21:00N 37°57' E 023°38'0 0.0
2018-Jun-18 20:30N 37°57' E 023°38'0 0.0
2018-Jun-18 20:00N 37°57' E 023°38'0 0.0
2018-Jun-18 19:30N 37°57' E 023°38'0 0.0
2018-Jun-18 19:00N 37°57' E 023°38'0 0.0
2018-Jun-18 18:30N 37°57' E 023°38'0 0.0
2018-Jun-18 18:00N 37°57' E 023°38'0 0.0
2018-Jun-18 17:30N 37°57' E 023°38'0 0.0
2018-Jun-18 17:00N 37°57' E 023°38'0 0.0
2018-Jun-18 16:30N 37°57' E 023°38'0 0.0
2018-Jun-18 16:00N 37°57' E 023°38'0 0.0
2018-Jun-18 15:30N 37°57' E 023°38'0 0.0
2018-Jun-18 15:00N 37°57' E 023°38'0 0.0
2018-Jun-18 14:30N 37°57' E 023°38'0 0.0
2018-Jun-18 14:00N 37°57' E 023°38'0 0.0
2018-Jun-18 13:30N 37°57' E 023°38'3 5.9
2018-Jun-18 13:00N 37°54' E 023°38'1929.6
2018-Jun-18 12:23N 37°38' E 023°49'6 0.9
2018-Jun-18 05:33N 37°32' E 023°53'230.2
2018-Jun-18 05:29N 37°34' E 023°51'1429.9
2018-Jun-18 05:00N 37°45' E 023°40'1223.8
2018-Jun-18 04:31N 37°57' E 023°38'0 0.2
2018-Jun-18 04:00N 37°57' E 023°38'0 0.0
2018-Jun-18 03:30N 37°57' E 023°38'0 0.0
2018-Jun-18 03:00N 37°57' E 023°38'0 0.0
2018-Jun-18 02:30N 37°57' E 023°38'0 0.0
2018-Jun-18 02:00N 37°57' E 023°38'0 0.0
2018-Jun-18 01:30N 37°57' E 023°38'0 0.0
2018-Jun-18 01:00N 37°57' E 023°38'0 0.0
2018-Jun-18 00:30N 37°57' E 023°38'0 0.0
2018-Jun-18 00:00N 37°57' E 023°38'0 0.0
2018-Jun-17 23:30N 37°57' E 023°38'0 0.0
2018-Jun-17 23:00N 37°57' E 023°38'0 0.0
2018-Jun-17 22:27N 37°57' E 023°38'0 0.0
2018-Jun-17 22:00N 37°57' E 023°38'0 0.0
2018-Jun-17 21:30N 37°57' E 023°38'0 0.0
2018-Jun-17 21:00N 37°57' E 023°38'0 0.0
2018-Jun-17 20:30N 37°57' E 023°38'0 0.0
2018-Jun-17 20:00N 37°57' E 023°38'0 0.0
2018-Jun-17 19:30N 37°57' E 023°38'0 0.0
2018-Jun-17 19:00N 37°57' E 023°38'0 0.0
2018-Jun-17 18:30N 37°57' E 023°38'0 0.0
2018-Jun-17 18:00N 37°57' E 023°38'612.7
2018-Jun-17 17:31N 37°50' E 023°40'22 2.9
2018-Jun-17 10:05N 37°32' E 023°53'330.2
2018-Jun-17 10:00N 37°34' E 023°51'1429.8
2018-Jun-17 09:31N 37°45' E 023°39'1223.8
2018-Jun-17 09:00N 37°57' E 023°38'0 0.1
2018-Jun-17 08:30N 37°57' E 023°38'0 0.0
2018-Jun-17 08:00N 37°57' E 023°38'0 0.0
2018-Jun-17 07:30N 37°57' E 023°38'0 0.0
2018-Jun-17 07:00N 37°57' E 023°38'0 0.0
2018-Jun-17 06:30N 37°57' E 023°38'0 0.0
2018-Jun-17 06:00N 37°57' E 023°38'0 0.0
2018-Jun-17 05:30N 37°57' E 023°38'0 0.0
2018-Jun-17 05:00N 37°57' E 023°38'0 0.0
2018-Jun-17 04:30N 37°57' E 023°38'0 0.0
2018-Jun-17 04:00N 37°57' E 023°38'0 0.0
2018-Jun-17 03:30N 37°57' E 023°38'0 0.0
2018-Jun-17 03:00N 37°57' E 023°38'0 0.0
2018-Jun-17 02:30N 37°57' E 023°38'0 0.0
2018-Jun-17 02:00N 37°57' E 023°38'0 0.0
2018-Jun-17 01:30N 37°57' E 023°38'0 0.0
2018-Jun-17 01:00N 37°57' E 023°38'0 0.0
2018-Jun-17 00:30N 37°57' E 023°38'0 0.0
2018-Jun-17 00:00N 37°57' E 023°38'0 0.0
2018-Jun-16 23:30N 37°57' E 023°38'0 0.0
2018-Jun-16 23:00N 37°57' E 023°38'0 0.0
2018-Jun-16 22:30N 37°57' E 023°38'0 0.0
2018-Jun-16 22:00N 37°57' E 023°38'0 0.0
2018-Jun-16 21:30N 37°57' E 023°38'0 0.0
2018-Jun-16 21:00N 37°57' E 023°38'0 0.0
2018-Jun-16 20:30N 37°57' E 023°38'0 0.0
2018-Jun-16 20:00N 37°57' E 023°38'0 0.0
2018-Jun-16 19:30N 37°57' E 023°38'0 0.0
2018-Jun-16 19:00N 37°57' E 023°38'0 0.0
2018-Jun-16 18:30N 37°57' E 023°38'0 0.0
2018-Jun-16 18:00N 37°57' E 023°38'0 0.0
2018-Jun-16 17:27N 37°57' E 023°38'0 0.0
2018-Jun-16 16:57N 37°57' E 023°38'0 0.0
2018-Jun-16 16:30N 37°57' E 023°38'0 0.0
2018-Jun-16 16:00N 37°57' E 023°38'0 0.0
2018-Jun-16 15:30N 37°57' E 023°38'0 0.0
2018-Jun-16 15:00N 37°57' E 023°38'0 0.0
2018-Jun-16 14:30N 37°57' E 023°38'0 0.0
2018-Jun-16 14:00N 37°57' E 023°38'0 0.0
2018-Jun-16 13:30N 37°57' E 023°38'2 4.9
2018-Jun-16 13:00N 37°54' E 023°38'1529.0
2018-Jun-16 12:30N 37°41' E 023°46'5 0.7
2018-Jun-16 05:21N 37°36' E 023°48'1030.2
2018-Jun-16 05:00N 37°45' E 023°40'1223.9
2018-Jun-16 04:30N 37°57' E 023°38'0 0.1
2018-Jun-16 04:00N 37°57' E 023°38'0 0.0
2018-Jun-16 03:30N 37°57' E 023°38'0 0.0
2018-Jun-16 03:00N 37°57' E 023°38'0 0.0
2018-Jun-16 02:30N 37°57' E 023°38'0 0.0
2018-Jun-16 02:00N 37°57' E 023°38'0 0.0
2018-Jun-16 01:30N 37°57' E 023°38'0 0.0
2018-Jun-16 01:00N 37°57' E 023°38'0 0.0
2018-Jun-16 00:30N 37°57' E 023°38'0 0.0
2018-Jun-16 00:00N 37°57' E 023°38'0 0.0
2018-Jun-15 23:30N 37°57' E 023°38'0 0.0
2018-Jun-15 23:00N 37°57' E 023°38'0 0.0
2018-Jun-15 22:30N 37°57' E 023°38'0 0.0
2018-Jun-15 22:00N 37°57' E 023°38'1 2.6
2018-Jun-15 21:31N 37°56' E 023°37'1224.7
2018-Jun-15 21:01N 37°45' E 023°44'14 2.3
2018-Jun-15 14:39N 37°32' E 023°53'428.6
2018-Jun-15 14:30N 37°35' E 023°49'1428.2
2018-Jun-15 14:01N 37°46' E 023°39'1020.5
2018-Jun-15 13:31N 37°57' E 023°38'0 0.0
2018-Jun-15 12:58N 37°57' E 023°38'0 0.0
2018-Jun-15 12:31N 37°57' E 023°38'0 0.0
2018-Jun-15 12:01N 37°57' E 023°38'0 0.0
2018-Jun-15 11:31N 37°57' E 023°38'0 0.0
2018-Jun-15 11:01N 37°57' E 023°38'0 0.0
2018-Jun-15 10:31N 37°57' E 023°38'0 0.0
2018-Jun-15 09:58N 37°57' E 023°38'0 0.0
2018-Jun-15 09:28N 37°57' E 023°38'0 0.0
2018-Jun-15 09:01N 37°57' E 023°38'0 0.0
2018-Jun-15 08:31N 37°57' E 023°38'0 0.0
2018-Jun-15 08:01N 37°57' E 023°38'0 0.0
2018-Jun-15 07:31N 37°57' E 023°38'0 0.0
2018-Jun-15 07:01N 37°57' E 023°38'0 0.0
2018-Jun-15 06:25N 37°57' E 023°38'0 0.0
2018-Jun-15 06:01N 37°57' E 023°38'0 0.0
2018-Jun-15 05:31N 37°57' E 023°38'0 0.0
2018-Jun-15 05:01N 37°57' E 023°38'0 0.0
2018-Jun-15 04:31N 37°57' E 023°38'0 0.0
2018-Jun-15 04:01N 37°57' E 023°38'0 0.0
2018-Jun-15 03:31N 37°57' E 023°38'0 0.0
2018-Jun-15 03:01N 37°57' E 023°38'0 0.0
2018-Jun-15 02:31N 37°57' E 023°38'0 0.0
2018-Jun-15 02:01N 37°57' E 023°38'0 0.0
2018-Jun-15 01:31N 37°57' E 023°38'0 0.0
2018-Jun-15 01:01N 37°57' E 023°38'0 0.0
2018-Jun-15 00:31N 37°57' E 023°38'0 0.0
2018-Jun-15 00:01N 37°57' E 023°38'0 0.0
2018-Jun-14 23:28N 37°57' E 023°38'0 0.0
2018-Jun-14 23:01N 37°57' E 023°38'0 0.0
2018-Jun-14 22:31N 37°57' E 023°38'0 0.0
2018-Jun-14 22:01N 37°57' E 023°38'0 0.0
2018-Jun-14 21:31N 37°57' E 023°38'0 0.0
2018-Jun-14 21:01N 37°57' E 023°38'0 0.0
2018-Jun-14 20:31N 37°57' E 023°38'0 0.0
2018-Jun-14 20:01N 37°57' E 023°38'0 0.0
2018-Jun-14 19:31N 37°57' E 023°38'0 0.0
2018-Jun-14 19:01N 37°57' E 023°38'0 0.0
2018-Jun-14 18:31N 37°57' E 023°38'0 0.0
2018-Jun-14 18:01N 37°57' E 023°38'0 0.0
2018-Jun-14 17:31N 37°57' E 023°38'0 0.0
2018-Jun-14 17:01N 37°57' E 023°38'0 0.0
2018-Jun-14 16:31N 37°57' E 023°38'0 0.0
2018-Jun-14 16:01N 37°57' E 023°38'0 0.0
2018-Jun-14 15:31N 37°57' E 023°38'0 0.0
2018-Jun-14 15:01N 37°57' E 023°38'0 0.0
2018-Jun-14 14:31N 37°57' E 023°38'0 0.0
2018-Jun-14 14:01N 37°57' E 023°38'0 0.0
2018-Jun-14 13:31N 37°57' E 023°38'3 6.1
2018-Jun-14 13:00N 37°54' E 023°38'1428.9
2018-Jun-14 12:31N 37°41' E 023°46'9 1.3
2018-Jun-14 05:33N 37°33' E 023°52'429.8
2018-Jun-14 05:26N 37°35' E 023°49'1329.4
2018-Jun-14 05:00N 37°45' E 023°40'12 0.8
2018-Jun-13 14:41N 37°57' E 023°38'0 0.0
2018-Jun-13 14:29N 37°57' E 023°38'0 0.0
2018-Jun-13 13:59N 37°57' E 023°38'0 0.0
2018-Jun-13 13:30N 37°57' E 023°38'4 7.8
2018-Jun-13 13:01N 37°53' E 023°39'1530.5
2018-Jun-13 12:31N 37°39' E 023°47'13 1.9
2018-Jun-13 05:44N 37°29' E 023°57'729.8
2018-Jun-13 05:30N 37°33' E 023°51'1530.0
2018-Jun-13 05:01N 37°45' E 023°39'1223.3
2018-Jun-13 04:30N 37°57' E 023°38'0 0.1
2018-Jun-13 03:59N 37°57' E 023°38'0 0.0
2018-Jun-13 03:29N 37°57' E 023°38'0 0.0
2018-Jun-13 02:59N 37°57' E 023°38'0 0.0
2018-Jun-13 02:29N 37°57' E 023°38'0 0.0
2018-Jun-13 01:59N 37°57' E 023°38'0 0.0
2018-Jun-13 01:29N 37°57' E 023°38'0 0.0
2018-Jun-13 00:59N 37°57' E 023°38'0 0.0
2018-Jun-13 00:29N 37°57' E 023°38'0 0.0
2018-Jun-12 23:59N 37°57' E 023°38'0 0.0
2018-Jun-12 23:29N 37°57' E 023°38'0 0.0
2018-Jun-12 22:56N 37°57' E 023°38'0 0.0
2018-Jun-12 22:29N 37°57' E 023°38'0 0.0
2018-Jun-12 21:59N 37°57' E 023°38'0 0.0
2018-Jun-12 21:29N 37°57' E 023°38'0 0.0
2018-Jun-12 20:59N 37°57' E 023°38'0 0.0
2018-Jun-12 20:29N 37°57' E 023°38'0 0.0
2018-Jun-12 19:59N 37°57' E 023°38'0 0.0
2018-Jun-12 19:29N 37°57' E 023°38'0 0.0
2018-Jun-12 18:59N 37°57' E 023°38'0 0.0
2018-Jun-12 18:29N 37°57' E 023°38'0 0.0
2018-Jun-12 17:59N 37°57' E 023°38'0 0.0
2018-Jun-12 17:29N 37°57' E 023°38'0 0.0
2018-Jun-12 16:59N 37°57' E 023°38'0 0.0
2018-Jun-12 16:29N 37°57' E 023°38'0 0.0
2018-Jun-12 15:59N 37°57' E 023°38'0 0.0
2018-Jun-12 15:29N 37°57' E 023°38'0 0.0
2018-Jun-12 14:59N 37°57' E 023°38'0 0.0
2018-Jun-12 14:29N 37°57' E 023°38'0 0.0
2018-Jun-12 13:59N 37°57' E 023°38'0 0.0
2018-Jun-12 13:29N 37°57' E 023°38'4 9.1
2018-Jun-12 13:01N 37°52' E 023°38'1631.2
2018-Jun-12 12:30N 37°39' E 023°48'9 1.2
2018-Jun-12 05:36N 37°31' E 023°53'330.2
2018-Jun-12 05:30N 37°33' E 023°51'1530.2
2018-Jun-12 05:01N 37°45' E 023°39'1223.9
2018-Jun-12 04:31N 37°57' E 023°38'0 0.1
2018-Jun-12 03:58N 37°57' E 023°38'0 0.0
2018-Jun-12 03:28N 37°57' E 023°38'0 0.0
2018-Jun-12 02:58N 37°57' E 023°38'0 0.0
2018-Jun-12 02:28N 37°57' E 023°38'0 0.0
2018-Jun-12 01:58N 37°57' E 023°38'0 0.0
2018-Jun-12 01:28N 37°57' E 023°38'0 0.0
2018-Jun-12 00:58N 37°57' E 023°38'0 0.0
2018-Jun-12 00:28N 37°57' E 023°38'0 0.0
2018-Jun-11 23:58N 37°57' E 023°38'0 0.0
2018-Jun-11 23:28N 37°57' E 023°38'0 0.0
2018-Jun-11 22:58N 37°57' E 023°38'0 0.0
2018-Jun-11 22:28N 37°57' E 023°38'0 0.0
2018-Jun-11 21:58N 37°57' E 023°38'0 0.0
2018-Jun-11 21:28N 37°57' E 023°38'0 0.0
2018-Jun-11 20:58N 37°57' E 023°38'0 0.0
2018-Jun-11 20:28N 37°57' E 023°38'0 0.0
2018-Jun-11 19:58N 37°57' E 023°38'0 0.0
2018-Jun-11 19:28N 37°57' E 023°38'0 0.0
2018-Jun-11 18:58N 37°57' E 023°38'0 0.0
2018-Jun-11 18:28N 37°57' E 023°38'0 0.0
2018-Jun-11 17:58N 37°57' E 023°38'0 0.0
2018-Jun-11 17:28N 37°57' E 023°38'0 0.0
2018-Jun-11 16:58N 37°57' E 023°38'0 0.0
2018-Jun-11 16:28N 37°57' E 023°38'0 0.0
2018-Jun-11 15:58N 37°57' E 023°38'0 0.0
2018-Jun-11 15:28N 37°57' E 023°38'0 0.0
2018-Jun-11 14:58N 37°57' E 023°38'0 0.0
2018-Jun-11 14:28N 37°57' E 023°38'0 0.0
2018-Jun-11 13:58N 37°57' E 023°38'1 1.3
2018-Jun-11 13:31N 37°56' E 023°38'714.0
2018-Jun-11 13:01N 37°50' E 023°40'18 2.4
2018-Jun-11 05:28N 37°34' E 023°50'1430.3
2018-Jun-11 05:00N 37°44' E 023°39'1224.5
2018-Jun-11 04:31N 37°57' E 023°38'0 0.1
2018-Jun-11 03:58N 37°57' E 023°38'0 0.0
2018-Jun-11 03:28N 37°57' E 023°38'0 0.0
2018-Jun-11 02:58N 37°57' E 023°38'0 0.0
2018-Jun-11 02:28N 37°57' E 023°38'0 0.0
2018-Jun-11 01:58N 37°57' E 023°38'0 0.0
2018-Jun-11 01:28N 37°57' E 023°38'0 0.0
2018-Jun-11 00:58N 37°57' E 023°38'0 0.0
2018-Jun-11 00:28N 37°57' E 023°38'0 0.0
2018-Jun-10 23:58N 37°57' E 023°38'0 0.0
2018-Jun-10 23:28N 37°57' E 023°38'0 0.0
2018-Jun-10 22:58N 37°57' E 023°38'0 0.0
2018-Jun-10 22:28N 37°57' E 023°38'0 0.0
2018-Jun-10 21:58N 37°57' E 023°38'0 0.0
2018-Jun-10 21:28N 37°57' E 023°38'0 0.0
2018-Jun-10 20:58N 37°57' E 023°38'0 0.0
2018-Jun-10 20:28N 37°57' E 023°38'0 0.0
2018-Jun-10 19:58N 37°57' E 023°38'0 0.0
2018-Jun-10 19:28N 37°57' E 023°38'0 0.0
2018-Jun-10 18:58N 37°57' E 023°38'0 0.0
2018-Jun-10 18:28N 37°57' E 023°38'0 0.0
2018-Jun-10 18:00N 37°57' E 023°38'4 8.8
2018-Jun-10 17:31N 37°52' E 023°39'1530.0
2018-Jun-10 17:00N 37°39' E 023°48'7 1.0
2018-Jun-10 10:03N 37°33' E 023°52'129.8
2018-Jun-10 10:00N 37°34' E 023°50'1529.4
2018-Jun-10 09:30N 37°45' E 023°39'1122.1
2018-Jun-10 09:00N 37°57' E 023°38'0 0.0
2018-Jun-10 08:30N 37°57' E 023°38'0 0.0
2018-Jun-10 08:00N 37°57' E 023°38'0 0.0
2018-Jun-10 07:30N 37°57' E 023°38'0 0.0
2018-Jun-10 07:00N 37°57' E 023°38'0 0.0
2018-Jun-10 06:30N 37°57' E 023°38'0 0.0
2018-Jun-10 06:00N 37°57' E 023°38'0 0.0
2018-Jun-10 05:30N 37°57' E 023°38'0 0.0
2018-Jun-10 05:00N 37°57' E 023°38'0 0.0
2018-Jun-10 04:30N 37°57' E 023°38'0 0.0
2018-Jun-10 04:00N 37°57' E 023°38'0 0.0
2018-Jun-10 03:30N 37°57' E 023°38'0 0.0
2018-Jun-10 03:00N 37°57' E 023°38'0 0.0
2018-Jun-10 02:30N 37°57' E 023°38'0 0.0
2018-Jun-10 02:00N 37°57' E 023°38'0 0.0
2018-Jun-10 01:30N 37°57' E 023°38'0 0.0
2018-Jun-10 01:00N 37°57' E 023°38'0 0.0
2018-Jun-10 00:30N 37°57' E 023°38'0 0.0
2018-Jun-10 00:00N 37°57' E 023°38'0 0.0
2018-Jun-09 23:30N 37°57' E 023°38'0 0.0
2018-Jun-09 23:00N 37°57' E 023°38'0 0.0
2018-Jun-09 22:30N 37°57' E 023°38'0 0.0
2018-Jun-09 22:00N 37°57' E 023°38'0 0.0
2018-Jun-09 21:30N 37°57' E 023°38'0 0.0
2018-Jun-09 20:57N 37°57' E 023°38'0 0.0
2018-Jun-09 20:30N 37°57' E 023°38'0 0.0
2018-Jun-09 20:00N 37°57' E 023°38'  

Dump ship's entire track history